Time;durP1;ratioP1;P1;durP2;ratioP2;P2;SDS_P1;SDS_P2;PMS_P1;PMS_P2;Temp;Humidity;BMP_temperature;BMP_pressure;BME280_temperature;BME280_humidity;BME280_pressure;Samples;Min_cycle;Max_cycle;Signal;HPM_P1;HPM_P2
2022/12/25 00:03:33;;;;;;;;;;;;;;;5.86;100;101432.2;;;;-74
2022/12/25 00:08:33;;;;;;;;;;;;;;;5.95;100;101436;;;;-75
2022/12/25 00:13:33;;;;;;;;;;;;;;;6.02;100;101435.3;;;;-75
2022/12/25 00:18:33;;;;;;;;;;;;;;;6.09;100;101427.1;;;;-74
2022/12/25 00:23:32;;;;;;;25.9;7.9;;;;;;;;;;;;;-79
2022/12/25 00:23:42;;;;;;;;;;;;;;;6.15;100;101415.6;;;;-79
2022/12/25 00:28:36;;;;;;;;;;;;;;;6.2;100;101421.4;;;;-79
2022/12/25 00:33:33;;;;;;;;;;;;;;;6.27;100;101430.9;;;;-78
2022/12/25 00:38:33;;;;;;;;;;;;;;;6.34;100;101427.2;;;;-80
2022/12/25 00:43:33;;;;;;;;;;;;;;;6.39;100;101428.3;;;;-79
2022/12/25 00:48:33;;;;;;;;;;;;;;;6.44;100;101428.6;;;;-79
2022/12/25 00:53:32;;;;;;;24.7;8;;;;;;;;;;;;;-79
2022/12/25 00:53:42;;;;;;;;;;;;;;;6.49;100;101423.4;;;;-78
2022/12/25 00:58:34;;;;;;;;;;;;;;;6.51;100;101432.9;;;;-80
2022/12/25 01:03:33;;;;;;;;;;;;;;;6.58;100;101434.4;;;;-80
2022/12/25 01:08:35;;;;;;;;;;;;;;;6.64;100;101437.9;;;;-80
2022/12/25 01:13:33;;;;;;;;;;;;;;;6.67;100;101447.6;;;;-78
2022/12/25 01:18:33;;;;;;;;;;;;;;;6.71;100;101444;;;;-79
2022/12/25 01:23:32;;;;;;;27.7;9.1;;;;;;;;;;;;;-79
2022/12/25 01:23:41;;;;;;;;;;;;;;;6.74;100;101445.7;;;;-78
2022/12/25 01:28:33;;;;;;;;;;;;;;;6.76;100;101441;;;;-79
2022/12/25 01:33:34;;;;;;;;;;;;;;;6.77;100;101442.8;;;;-79
2022/12/25 01:38:33;;;;;;;;;;;;;;;6.82;100;101433.4;;;;-79
2022/12/25 01:43:34;;;;;;;;;;;;;;;6.84;100;101436.9;;;;-78
2022/12/25 01:48:35;;;;;;;;;;;;;;;6.89;100;101442.1;;;;-79
2022/12/25 01:53:32;;;;;;;26.4;9.4;;;;;;;;;;;;;-79
2022/12/25 01:53:42;;;;;;;;;;;;;;;6.91;100;101438.6;;;;-77
2022/12/25 01:58:33;;;;;;;;;;;;;;;6.93;100;101435;;;;-79
2022/12/25 02:03:33;;;;;;;;;;;;;;;6.98;100;101447.1;;;;-79
2022/12/25 02:08:33;;;;;;;;;;;;;;;6.99;100;101454.6;;;;-79
2022/12/25 02:13:33;;;;;;;;;;;;;;;7;100;101453.4;;;;-79
2022/12/25 02:18:37;;;;;;;;;;;;;;;7.03;100;101446.8;;;;-79
2022/12/25 02:23:42;;;;;;;24.6;9.7;;;;;;;;;;;;;-80
2022/12/25 02:24:00;;;;;;;;;;;;;;;7.03;100;101437.1;;;;-80
2022/12/25 02:28:38;;;;;;;;;;;;;;;6.99;100;101432;;;;-79
2022/12/25 02:38:36;;;;;;;;;;;;;;;6.91;100;101411.3;;;;-79
2022/12/25 03:08:36;;;;;;;;;;;;;;;6.72;100;101388.5;;;;-74
2022/12/25 03:13:36;;;;;;;;;;;;;;;6.71;100;101389.3;;;;-73
2022/12/25 03:18:34;;;;;;;;;;;;;;;6.68;100;101376.4;;;;-73
2022/12/25 03:28:34;;;;;;;;;;;;;;;6.69;100;101391.5;;;;-78
2022/12/25 03:33:38;;;;;;;;;;;;;;;6.7;100;101401.7;;;;-79
2022/12/25 04:38:33;;;;;;;;;;;;;;;7.09;100;101365;;;;-78
2022/12/25 04:43:33;;;;;;;;;;;;;;;7.11;100;101373;;;;-78
2022/12/25 04:48:34;;;;;;;;;;;;;;;7.14;100;101367.6;;;;-78
2022/12/25 04:53:33;;;;;;;;;;;;;;;7.16;100;101359.5;;;;-78
2022/12/25 04:53:42;;;;;;;23.8;10.6;;;;;;;;;;;;;-78
2022/12/25 04:58:33;;;;;;;;;;;;;;;7.19;100;101366.1;;;;-77
2022/12/25 05:03:33;;;;;;;;;;;;;;;7.22;100;101353;;;;-78
2022/12/25 05:08:34;;;;;;;;;;;;;;;7.22;100;101346;;;;-77
2022/12/25 05:13:33;;;;;;;;;;;;;;;7.27;100;101344.1;;;;-78
2022/12/25 05:18:33;;;;;;;;;;;;;;;7.28;100;101341.9;;;;-79
2022/12/25 05:23:33;;;;;;;;;;;;;;;7.29;100;101343;;;;-77
2022/12/25 05:23:47;;;;;;;24.4;11;;;;;;;;;;;;;-77
2022/12/25 05:28:33;;;;;;;;;;;;;;;7.31;100;101343.6;;;;-79
2022/12/25 05:33:33;;;;;;;;;;;;;;;7.35;100;101344.4;;;;-80
2022/12/25 05:38:33;;;;;;;;;;;;;;;7.33;100;101335.3;;;;-79
2022/12/25 05:43:33;;;;;;;;;;;;;;;7.35;100;101332.9;;;;-78
2022/12/25 05:48:33;;;;;;;;;;;;;;;7.37;100;101337.7;;;;-78
2022/12/25 05:53:33;;;;;;;;;;;;;;;7.41;100;101330.6;;;;-79
2022/12/25 05:53:42;;;;;;;23.7;10.7;;;;;;;;;;;;;-79
2022/12/25 05:58:33;;;;;;;;;;;;;;;7.42;100;101323.5;;;;-78
2022/12/25 06:03:33;;;;;;;;;;;;;;;7.46;100;101313.7;;;;-79
2022/12/25 06:08:33;;;;;;;;;;;;;;;7.47;100;101303;;;;-78
2022/12/25 06:13:35;;;;;;;;;;;;;;;7.46;100;101299.9;;;;-78
2022/12/25 06:18:33;;;;;;;;;;;;;;;7.45;100;101294.5;;;;-79
2022/12/25 06:23:33;;;;;;;;;;;;;;;7.43;100;101285.8;;;;-79
2022/12/25 06:23:42;;;;;;;23.2;10.6;;;;;;;;;;;;;-79
2022/12/25 06:28:33;;;;;;;;;;;;;;;7.41;100;101287.2;;;;-79
2022/12/25 06:33:33;;;;;;;;;;;;;;;7.38;100;101288.7;;;;-79
2022/12/25 06:38:33;;;;;;;;;;;;;;;7.35;100;101277.6;;;;-79
2022/12/25 06:43:33;;;;;;;;;;;;;;;7.33;100;101272.5;;;;-78
2022/12/25 06:48:33;;;;;;;;;;;;;;;7.31;100;101279.3;;;;-78
2022/12/25 06:53:33;;;;;;;;;;;;;;;7.29;100;101276.8;;;;-78
2022/12/25 06:53:49;;;;;;;28.6;10.2;;;;;;;;;;;;;-78
2022/12/25 06:58:33;;;;;;;;;;;;;;;7.26;100;101269.9;;;;-78
2022/12/25 07:03:33;;;;;;;;;;;;;;;7.23;100;101273.4;;;;-78
2022/12/25 07:08:33;;;;;;;;;;;;;;;7.22;100;101278.7;;;;-78
2022/12/25 07:13:33;;;;;;;;;;;;;;;7.2;100;101286;;;;-78
2022/12/25 07:18:33;;;;;;;;;;;;;;;7.19;100;101287.9;;;;-78
2022/12/25 07:23:33;;;;;;;;;;;;;;;7.17;100;101295.8;;;;-78
2022/12/25 07:23:45;;;;;;;18.2;8.7;;;;;;;;;;;;;-78
2022/12/25 07:28:33;;;;;;;;;;;;;;;7.18;100;101293.7;;;;-81
2022/12/25 07:33:33;;;;;;;;;;;;;;;7.2;100;101284.3;;;;-80
2022/12/25 07:38:33;;;;;;;;;;;;;;;7.19;100;101281.2;;;;-80
2022/12/25 07:43:33;;;;;;;;;;;;;;;7.21;100;101279.3;;;;-78
2022/12/25 07:48:34;;;;;;;;;;;;;;;7.24;100;101304.5;;;;-78
2022/12/25 07:53:33;;;;;;;;;;;;;;;7.26;100;101300.2;;;;-79
2022/12/25 07:53:43;;;;;;;15.6;8;;;;;;;;;;;;;-79
2022/12/25 07:58:33;;;;;;;;;;;;;;;7.26;100;101295.9;;;;-79
2022/12/25 08:03:34;;;;;;;;;;;;;;;7.26;100;101280.1;;;;-78
2022/12/25 08:08:33;;;;;;;;;;;;;;;7.27;100;101282.4;;;;-79
2022/12/25 08:13:33;;;;;;;;;;;;;;;7.28;100;101279.6;;;;-80
2022/12/25 08:18:33;;;;;;;;;;;;;;;7.3;100;101313.8;;;;-78
2022/12/25 08:23:33;;;;;;;;;;;;;;;7.33;100;101316;;;;-78
2022/12/25 08:23:43;;;;;;;16.9;8.1;;;;;;;;;;;;;-78
2022/12/25 08:28:33;;;;;;;;;;;;;;;7.33;100;101323.4;;;;-78
2022/12/25 08:33:33;;;;;;;;;;;;;;;7.38;100;101324.9;;;;-79
2022/12/25 08:38:33;;;;;;;;;;;;;;;7.37;100;101325.6;;;;-79
2022/12/25 08:43:33;;;;;;;;;;;;;;;7.39;100;101322.4;;;;-79
2022/12/25 08:48:33;;;;;;;;;;;;;;;7.42;100;101315;;;;-79
2022/12/25 08:53:33;;;;;;;;;;;;;;;7.43;100;101311.7;;;;-79
2022/12/25 08:53:42;;;;;;;12.6;6.5;;;;;;;;;;;;;-79
2022/12/25 08:58:33;;;;;;;;;;;;;;;7.45;100;101311.7;;;;-78
2022/12/25 09:03:34;;;;;;;;;;;;;;;7.49;100;101319;;;;-78
2022/12/25 09:08:33;;;;;;;;;;;;;;;7.51;100;101316.5;;;;-79
2022/12/25 09:13:33;;;;;;;;;;;;;;;7.52;100;101306.2;;;;-79
2022/12/25 09:18:33;;;;;;;;;;;;;;;7.56;100;101314.9;;;;-79
2022/12/25 09:23:35;;;;;;;;;;;;;;;7.6;100;101325.8;;;;-78
2022/12/25 09:23:44;;;;;;;12.4;5.9;;;;;;;;;;;;;-78
2022/12/25 09:28:33;;;;;;;;;;;;;;;7.61;100;101331.6;;;;-78
2022/12/25 09:33:33;;;;;;;;;;;;;;;7.64;100;101330.9;;;;-79
2022/12/25 09:38:33;;;;;;;;;;;;;;;7.65;100;101338.3;;;;-78
2022/12/25 09:43:34;;;;;;;;;;;;;;;7.67;100;101315.3;;;;-77
2022/12/25 09:48:36;;;;;;;;;;;;;;;7.69;100;101320;;;;-79
2022/12/25 09:53:38;;;;;;;;;;;;;;;7.72;100;101310;;;;-79
2022/12/25 09:53:50;;;;;;;15.1;6.9;;;;;;;;;;;;;-79
2022/12/25 09:58:33;;;;;;;;;;;;;;;7.74;100;101315.5;;;;-78
2022/12/25 10:03:45;;;;;;;;;;;;;;;7.76;100;101321.7;;;;-79
2022/12/25 10:08:41;;;;;;;;;;;;;;;7.76;100;101313.7;;;;-78
2022/12/25 10:13:49;;;;;;;;;;;;;;;7.79;100;101303.7;;;;-79
2022/12/25 10:18:44;;;;;;;;;;;;;;;7.82;100;101298.3;;;;-79
2022/12/25 10:23:34;;;;;;;;;;;;;;;7.83;100;101291.6;;;;-78
2022/12/25 10:23:45;;;;;;;14.2;6.7;;;;;;;;;;;;;-78
2022/12/25 10:28:36;;;;;;;;;;;;;;;7.87;100;101295.4;;;;-77
2022/12/25 10:33:33;;;;;;;;;;;;;;;7.91;100;101293.3;;;;-80
2022/12/25 10:38:33;;;;;;;;;;;;;;;7.94;100;101276.1;;;;-78
2022/12/25 10:43:35;;;;;;;;;;;;;;;7.95;100;101267.6;;;;-79
2022/12/25 10:48:33;;;;;;;;;;;;;;;7.98;100;101263.9;;;;-80
2022/12/25 10:53:40;;;;;;;;;;;;;;;7.99;100;101255.6;;;;-80
2022/12/25 10:53:49;;;;;;;11.9;5.7;;;;;;;;;;;;;-80
2022/12/25 10:58:33;;;;;;;;;;;;;;;8.02;100;101260;;;;-80
2022/12/25 11:03:34;;;;;;;;;;;;;;;8.03;100;101255.8;;;;-79
2022/12/25 11:08:34;;;;;;;;;;;;;;;8.05;100;101263.1;;;;-79
2022/12/25 11:13:33;;;;;;;;;;;;;;;8.06;100;101242.6;;;;-79
2022/12/25 11:18:37;;;;;;;;;;;;;;;8.07;100;101225.1;;;;-79
2022/12/25 11:23:34;;;;;;;;;;;;;;;8.09;100;101217.7;;;;-79
2022/12/25 11:23:46;;;;;;;13.4;6.2;;;;;;;;;;;;;-79
2022/12/25 11:28:34;;;;;;;;;;;;;;;8.11;100;101221.6;;;;-79
2022/12/25 11:33:36;;;;;;;;;;;;;;;8.11;100;101167.5;;;;-78
2022/12/25 11:38:33;;;;;;;;;;;;;;;8.13;100;101164.9;;;;-78
2022/12/25 11:43:37;;;;;;;;;;;;;;;8.13;100;101151.3;;;;-78
2022/12/25 11:48:35;;;;;;;;;;;;;;;8.15;100;101151.4;;;;-81
2022/12/25 11:53:38;;;;;;;;;;;;;;;8.17;100;101154.5;;;;-77
2022/12/25 11:53:52;;;;;;;10.4;5.6;;;;;;;;;;;;;-77
2022/12/25 11:58:38;;;;;;;;;;;;;;;8.19;100;101154.4;;;;-77
2022/12/25 12:03:35;;;;;;;;;;;;;;;8.21;100;101148;;;;-78
2022/12/25 12:08:34;;;;;;;;;;;;;;;8.23;100;101140;;;;-79
2022/12/25 12:13:40;;;;;;;;;;;;;;;8.25;100;101140.3;;;;-75
2022/12/25 12:18:36;;;;;;;;;;;;;;;8.26;100;101113.3;;;;-75
2022/12/25 12:23:37;;;;;;;;;;;;;;;8.26;100;101105.8;;;;-75
2022/12/25 12:23:54;;;;;;;12.7;5.8;;;;;;;;;;;;;-75
2022/12/25 12:28:40;;;;;;;;;;;;;;;8.28;100;101109.1;;;;-74
2022/12/25 12:33:37;;;;;;;;;;;;;;;8.3;100;101115.5;;;;-73
2022/12/25 12:38:34;;;;;;;;;;;;;;;8.29;100;101102.9;;;;-75
2022/12/25 12:43:36;;;;;;;;;;;;;;;8.3;100;101099.5;;;;-74
2022/12/25 12:48:39;;;;;;;;;;;;;;;8.31;100;101098.2;;;;-74
2022/12/25 12:53:37;;;;;;;;;;;;;;;8.31;100;101092;;;;-74
2022/12/25 12:53:46;;;;;;;13.5;6.7;;;;;;;;;;;;;-74
2022/12/25 12:58:35;;;;;;;;;;;;;;;8.31;100;101096.3;;;;-75
2022/12/25 13:03:43;;;;;;;;;;;;;;;8.28;100;101084.9;;;;-74
2022/12/25 13:08:38;;;;;;;;;;;;;;;8.27;100;101076.3;;;;-75
2022/12/25 13:13:36;;;;;;;;;;;;;;;8.25;100;101054.6;;;;-75
2022/12/25 13:18:33;;;;;;;;;;;;;;;8.25;100;101036.1;;;;-75
2022/12/25 13:23:35;;;;;;;;;;;;;;;8.24;100;101032.5;;;;-78
2022/12/25 13:23:44;;;;;;;13.5;6.8;;;;;;;;;;;;;-78
2022/12/25 13:28:34;;;;;;;;;;;;;;;8.25;100;101043.2;;;;-79
2022/12/25 13:33:33;;;;;;;;;;;;;;;8.25;100;101041.3;;;;-79
2022/12/25 13:38:33;;;;;;;;;;;;;;;8.23;100;101053;;;;-79
2022/12/25 13:43:35;;;;;;;;;;;;;;;8.22;100;101043.4;;;;-80
2022/12/25 13:48:33;;;;;;;;;;;;;;;8.23;100;101051.7;;;;-78
2022/12/25 13:53:35;;;;;;;;;;;;;;;8.23;100;101061;;;;-78
2022/12/25 13:53:46;;;;;;;14.1;6.9;;;;;;;;;;;;;-78
2022/12/25 13:58:33;;;;;;;;;;;;;;;8.22;100;101052.6;;;;-79
2022/12/25 14:03:36;;;;;;;;;;;;;;;8.22;100;101045.5;;;;-79
2022/12/25 14:08:34;;;;;;;;;;;;;;;8.21;100;101049.1;;;;-79
2022/12/25 14:13:34;;;;;;;;;;;;;;;8.21;100;101045.3;;;;-79
2022/12/25 14:18:34;;;;;;;;;;;;;;;8.21;100;101045.2;;;;-79
2022/12/25 14:23:40;;;;;;;;;;;;;;;8.19;100;101051.4;;;;-79
2022/12/25 14:23:50;;;;;;;12.4;6.9;;;;;;;;;;;;;-79
2022/12/25 14:28:33;;;;;;;;;;;;;;;8.21;100;101049.8;;;;-79
2022/12/25 14:33:38;;;;;;;;;;;;;;;8.17;100;101052.4;;;;-80
2022/12/25 14:38:35;;;;;;;;;;;;;;;8.17;100;101045.6;;;;-80
2022/12/25 14:43:35;;;;;;;;;;;;;;;8.15;100;101049.6;;;;-78
2022/12/25 14:48:33;;;;;;;;;;;;;;;8.15;100;101032.9;;;;-78
2022/12/25 14:53:36;;;;;;;;;;;;;;;8.14;100;101022.6;;;;-78
2022/12/25 14:53:50;;;;;;;13.6;7.2;;;;;;;;;;;;;-78
2022/12/25 14:58:34;;;;;;;;;;;;;;;8.12;100;101018.2;;;;-78
2022/12/25 15:03:34;;;;;;;;;;;;;;;8.12;100;101036.2;;;;-78
2022/12/25 15:08:34;;;;;;;;;;;;;;;8.11;100;101044.4;;;;-78
2022/12/25 15:13:33;;;;;;;;;;;;;;;8.1;100;101041.3;;;;-78
2022/12/25 15:18:34;;;;;;;;;;;;;;;8.09;100;101036.2;;;;-78
2022/12/25 15:23:33;;;;;;;;;;;;;;;8.08;100;101033.6;;;;-78
2022/12/25 15:23:42;;;;;;;13.7;7.8;;;;;;;;;;;;;-78
2022/12/25 15:28:33;;;;;;;;;;;;;;;8.06;100;101032;;;;-78
2022/12/25 15:33:32;;;;;;;;;;;;;;;8.05;100;101040.8;;;;-74
2022/12/25 15:38:35;;;;;;;;;;;;;;;8.04;100;101043.8;;;;-74
2022/12/25 15:43:34;;;;;;;;;;;;;;;8.03;100;101038.1;;;;-79
2022/12/25 15:48:34;;;;;;;;;;;;;;;8.01;100;101034.4;;;;-79
2022/12/25 15:53:33;;;;;;;;;;;;;;;8;100;101019.4;;;;-78
2022/12/25 15:53:44;;;;;;;14.2;7.8;;;;;;;;;;;;;-78
2022/12/25 15:58:33;;;;;;;;;;;;;;;7.99;100;101022.6;;;;-79
2022/12/25 16:03:33;;;;;;;;;;;;;;;7.96;100;101024;;;;-79
2022/12/25 16:08:32;;;;;;;;;;;;;;;7.96;100;101027.5;;;;-79
2022/12/25 16:13:33;;;;;;;;;;;;;;;7.94;100;101031.4;;;;-78
2022/12/25 16:18:33;;;;;;;;;;;;;;;7.94;100;101017.5;;;;-78
2022/12/25 16:23:33;;;;;;;;;;;;;;;7.92;100;101013.3;;;;-79
2022/12/25 16:23:42;;;;;;;14.6;7.5;;;;;;;;;;;;;-79
2022/12/25 16:28:32;;;;;;;;;;;;;;;7.88;100;100993.7;;;;-79
2022/12/25 16:33:35;;;;;;;;;;;;;;;7.86;100;100998;;;;-79
2022/12/25 16:38:33;;;;;;;;;;;;;;;7.84;100;100989.9;;;;-79
2022/12/25 16:43:33;;;;;;;;;;;;;;;7.8;100;100984.3;;;;-79
2022/12/25 16:48:33;;;;;;;;;;;;;;;7.77;100;100979.5;;;;-80
2022/12/25 16:53:33;;;;;;;;;;;;;;;7.75;100;100971;;;;-80
2022/12/25 16:53:43;;;;;;;13.6;7.7;;;;;;;;;;;;;-80
2022/12/25 16:58:34;;;;;;;;;;;;;;;7.72;100;100967.6;;;;-79
2022/12/25 17:03:33;;;;;;;;;;;;;;;7.71;100;100976.3;;;;-78
2022/12/25 17:08:33;;;;;;;;;;;;;;;7.69;100;100980.2;;;;-79
2022/12/25 17:13:32;;;;;;;;;;;;;;;7.67;100;100987.2;;;;-80
2022/12/25 17:18:33;;;;;;;;;;;;;;;7.66;100;100990.3;;;;-78
2022/12/25 17:23:32;;;;;;;;;;;;;;;7.66;100;100988.3;;;;-79
2022/12/25 17:23:43;;;;;;;17.6;9.1;;;;;;;;;;;;;-79
2022/12/25 17:28:34;;;;;;;;;;;;;;;7.63;100;100985.8;;;;-79
2022/12/25 17:33:33;;;;;;;;;;;;;;;7.62;100;100978.8;;;;-79
2022/12/25 17:38:33;;;;;;;;;;;;;;;7.63;100;100981.9;;;;-79
2022/12/25 17:43:33;;;;;;;;;;;;;;;7.64;100;100981.8;;;;-80
2022/12/25 17:48:34;;;;;;;;;;;;;;;7.65;100;100988.5;;;;-79
2022/12/25 17:53:33;;;;;;;;;;;;;;;7.64;100;100994.1;;;;-80
2022/12/25 17:53:43;;;;;;;20.9;10.9;;;;;;;;;;;;;-80
2022/12/25 17:58:33;;;;;;;;;;;;;;;7.64;100;100984.6;;;;-79
2022/12/25 18:03:33;;;;;;;;;;;;;;;7.66;100;100982.9;;;;-79
2022/12/25 18:08:32;;;;;;;;;;;;;;;7.67;100;100982.4;;;;-78
2022/12/25 18:13:33;;;;;;;;;;;;;;;7.67;100;100978;;;;-79
2022/12/25 18:18:33;;;;;;;;;;;;;;;7.68;100;100973.7;;;;-79
2022/12/25 18:23:33;;;;;;;;;;;;;;;7.68;100;100972.8;;;;-80
2022/12/25 18:23:42;;;;;;;23.2;10.7;;;;;;;;;;;;;-80
2022/12/25 18:28:33;;;;;;;;;;;;;;;7.69;100;100982.7;;;;-78
2022/12/25 18:33:33;;;;;;;;;;;;;;;7.7;100;100981.4;;;;-78
2022/12/25 18:38:35;;;;;;;;;;;;;;;7.69;100;100970.2;;;;-78
2022/12/25 18:43:33;;;;;;;;;;;;;;;7.72;100;100981.5;;;;-78
2022/12/25 18:48:33;;;;;;;;;;;;;;;7.75;100;101000.9;;;;-78
2022/12/25 18:53:32;;;;;;;;;;;;;;;7.75;100;101012.7;;;;-79
2022/12/25 18:53:42;;;;;;;24.9;10.8;;;;;;;;;;;;;-79
2022/12/25 18:58:33;;;;;;;;;;;;;;;7.78;100;101019.2;;;;-78
2022/12/25 19:03:33;;;;;;;;;;;;;;;7.76;100;101009.5;;;;-78
2022/12/25 19:08:32;;;;;;;;;;;;;;;7.77;100;101001.2;;;;-78
2022/12/25 19:13:35;;;;;;;;;;;;;;;7.74;100;100989.7;;;;-80
2022/12/25 19:18:33;;;;;;;;;;;;;;;7.75;100;100995.3;;;;-79
2022/12/25 19:23:32;;;;;;;;;;;;;;;7.75;100;100988.2;;;;-78
2022/12/25 19:23:45;;;;;;;25.9;10.1;;;;;;;;;;;;;-78
2022/12/25 19:28:33;;;;;;;;;;;;;;;7.74;100;100977.4;;;;-78
2022/12/25 19:33:33;;;;;;;;;;;;;;;7.75;100;100992.2;;;;-78
2022/12/25 19:38:33;;;;;;;;;;;;;;;7.76;100;100985.2;;;;-78
2022/12/25 19:43:34;;;;;;;;;;;;;;;7.75;100;100990.7;;;;-78
2022/12/25 19:48:33;;;;;;;;;;;;;;;7.76;100;100993.1;;;;-77
2022/12/25 19:53:34;;;;;;;;;;;;;;;7.75;100;101007;;;;-78
2022/12/25 19:53:43;;;;;;;30.3;10;;;;;;;;;;;;;-78
2022/12/25 19:58:32;;;;;;;;;;;;;;;7.75;100;101008.5;;;;-78
2022/12/25 20:03:32;;;;;;;;;;;;;;;7.75;100;101012;;;;-78
2022/12/25 20:08:35;;;;;;;;;;;;;;;7.75;100;101017.1;;;;-78
2022/12/25 20:13:32;;;;;;;;;;;;;;;7.75;100;101020.9;;;;-77
2022/12/25 20:18:35;;;;;;;;;;;;;;;7.73;100;101008.3;;;;-77
2022/12/25 20:23:34;;;;;;;;;;;;;;;7.73;100;101012.8;;;;-78
2022/12/25 20:23:43;;;;;;;32;10.4;;;;;;;;;;;;;-78
2022/12/25 20:28:33;;;;;;;;;;;;;;;7.73;100;100999;;;;-77
2022/12/25 20:33:33;;;;;;;;;;;;;;;7.72;100;100993.2;;;;-77
2022/12/25 20:38:33;;;;;;;;;;;;;;;7.73;100;100990.1;;;;-77
2022/12/25 20:43:33;;;;;;;;;;;;;;;7.72;100;100984.5;;;;-79
2022/12/25 20:48:33;;;;;;;;;;;;;;;7.71;100;100994.8;;;;-78
2022/12/25 20:53:33;;;;;;;;;;;;;;;7.71;100;101004.9;;;;-79
2022/12/25 20:53:44;;;;;;;35.5;11.1;;;;;;;;;;;;;-79
2022/12/25 20:58:34;;;;;;;;;;;;;;;7.69;100;100995.5;;;;-77
2022/12/25 21:03:32;;;;;;;;;;;;;;;7.68;100;100996.2;;;;-78
2022/12/25 21:08:33;;;;;;;;;;;;;;;7.66;100;100992.2;;;;-79
2022/12/25 21:13:34;;;;;;;;;;;;;;;7.64;100;100999.7;;;;-78
2022/12/25 21:18:32;;;;;;;;;;;;;;;7.63;100;101003.4;;;;-78
2022/12/25 21:23:33;;;;;;;;;;;;;;;7.61;100;101013.4;;;;-77
2022/12/25 21:23:44;;;;;;;33.2;11.4;;;;;;;;;;;;;-76
2022/12/25 21:28:33;;;;;;;;;;;;;;;7.6;100;101009.4;;;;-78
2022/12/25 21:38:32;;;;;;;;;;;;;;;7.55;100;101021.9;;;;-77
2022/12/25 21:43:32;;;;;;;;;;;;;;;7.54;100;101022.5;;;;-79
2022/12/25 21:48:38;;;;;;;;;;;;;;;7.53;100;101025.8;;;;-78
2022/12/25 21:53:33;;;;;;;;;;;;;;;7.51;100;101023.1;;;;-78
2022/12/25 21:53:44;;;;;;;33.3;12.3;;;;;;;;;;;;;-77
2022/12/25 21:58:33;;;;;;;;;;;;;;;7.54;100;101036.4;;;;-77
2022/12/25 22:03:32;;;;;;;;;;;;;;;7.55;100;101045.1;;;;-77
2022/12/25 22:08:35;;;;;;;;;;;;;;;7.57;100;101036.6;;;;-79
2022/12/25 22:23:33;;;;;;;;;;;;;;;7.63;100;101007.4;;;;-81
2022/12/25 22:23:44;;;;;;;31.3;11.3;;;;;;;;;;;;;-78
2022/12/25 22:28:32;;;;;;;;;;;;;;;7.62;100;101005.3;;;;-79
2022/12/25 22:33:33;;;;;;;;;;;;;;;7.63;100;101009.3;;;;-79
2022/12/25 22:38:33;;;;;;;;;;;;;;;7.61;100;101008.8;;;;-79
2022/12/25 22:43:33;;;;;;;;;;;;;;;7.61;100;100999.7;;;;-79
2022/12/25 22:48:32;;;;;;;;;;;;;;;7.63;100;101000.8;;;;-78
2022/12/25 22:53:33;;;;;;;;;;;;;;;7.62;100;100997.9;;;;-80
2022/12/25 22:53:45;;;;;;;30.1;10.5;;;;;;;;;;;;;-81
2022/12/25 22:58:32;;;;;;;;;;;;;;;7.63;100;100988.5;;;;-80
2022/12/25 23:03:32;;;;;;;;;;;;;;;7.6;100;100987.9;;;;-79
2022/12/25 23:08:32;;;;;;;;;;;;;;;7.63;100;100996;;;;-79
2022/12/25 23:33:33;;;;;;;;;;;;;;;7.66;100;100974.3;;;;-80
2022/12/25 23:38:33;;;;;;;;;;;;;;;7.68;100;100978.6;;;;-79
2022/12/25 23:43:33;;;;;;;;;;;;;;;7.69;100;100988;;;;-81
2022/12/25 23:48:33;;;;;;;;;;;;;;;7.71;100;100997.9;;;;-80
2022/12/25 23:53:33;;;;;;;;;;;;;;;7.73;100;101004.2;;;;-79
2022/12/25 23:53:46;;;;;;;24;9.8;;;;;;;;;;;;;-80
2022/12/25 23:58:32;;;;;;;;;;;;;;;7.75;100;101008.1;;;;-79
